sensor_id;sensor_type;location;lat;lon;timestamp;temperature;humidity
1956;DHT22;978;48.314;11.562;2022-08-11T00:00:32;23.00;84.40
1956;DHT22;978;48.314;11.562;2022-08-11T00:03:05;23.10;84.40
1956;DHT22;978;48.314;11.562;2022-08-11T00:05:42;23.10;84.30
1956;DHT22;978;48.314;11.562;2022-08-11T00:08:09;23.00;84.20
1956;DHT22;978;48.314;11.562;2022-08-11T00:10:39;23.00;84.20
1956;DHT22;978;48.314;11.562;2022-08-11T00:13:06;23.00;84.20
1956;DHT22;978;48.314;11.562;2022-08-11T00:15:40;23.00;84.30
1956;DHT22;978;48.314;11.562;2022-08-11T00:18:08;23.00;84.20
1956;DHT22;978;48.314;11.562;2022-08-11T00:20:39;23.10;84.30
1956;DHT22;978;48.314;11.562;2022-08-11T00:23:08;23.00;84.20
1956;DHT22;978;48.314;11.562;2022-08-11T00:25:43;23.00;84.10
1956;DHT22;978;48.314;11.562;2022-08-11T00:28:29;23.00;84.10
1956;DHT22;978;48.314;11.562;2022-08-11T00:30:58;23.10;84.20
1956;DHT22;978;48.314;11.562;2022-08-11T00:33:32;23.00;84.10
1956;DHT22;978;48.314;11.562;2022-08-11T00:36:00;23.10;84.20
1956;DHT22;978;48.314;11.562;2022-08-11T00:38:32;23.00;84.10
1956;DHT22;978;48.314;11.562;2022-08-11T00:41:08;23.10;84.20
1956;DHT22;978;48.314;11.562;2022-08-11T00:46:56;23.00;84.10
1956;DHT22;978;48.314;11.562;2022-08-11T00:49:37;23.00;84.10
1956;DHT22;978;48.314;11.562;2022-08-11T00:52:13;23.00;84.10
1956;DHT22;978;48.314;11.562;2022-08-11T00:58:33;23.10;84.10
1956;DHT22;978;48.314;11.562;2022-08-11T01:01:08;23.00;84.60
1956;DHT22;978;48.314;11.562;2022-08-11T01:04:14;23.00;84.00
1956;DHT22;978;48.314;11.562;2022-08-11T01:07:07;23.10;84.10
1956;DHT22;978;48.314;11.562;2022-08-11T01:10:06;23.00;84.00
1956;DHT22;978;48.314;11.562;2022-08-11T01:12:43;23.00;83.90
1956;DHT22;978;48.314;11.562;2022-08-11T01:15:58;23.00;83.90
1956;DHT22;978;48.314;11.562;2022-08-11T01:19:07;23.00;83.90
1956;DHT22;978;48.314;11.562;2022-08-11T01:22:22;23.00;83.90
1956;DHT22;978;48.314;11.562;2022-08-11T01:25:23;23.00;83.80
1956;DHT22;978;48.314;11.562;2022-08-11T01:28:24;23.00;83.80
1956;DHT22;978;48.314;11.562;2022-08-11T01:37:31;23.00;83.80
1956;DHT22;978;48.314;11.562;2022-08-11T01:43:46;23.00;83.80
1956;DHT22;978;48.314;11.562;2022-08-11T01:46:42;23.00;84.30
1956;DHT22;978;48.314;11.562;2022-08-11T01:49:16;23.00;83.70
1956;DHT22;978;48.314;11.562;2022-08-11T01:52:07;23.00;83.70
1956;DHT22;978;48.314;11.562;2022-08-11T01:54:41;23.00;83.70
1956;DHT22;978;48.314;11.562;2022-08-11T01:57:19;23.00;83.70
1956;DHT22;978;48.314;11.562;2022-08-11T02:00:07;23.00;83.70
1956;DHT22;978;48.314;11.562;2022-08-11T02:02:46;23.00;83.60
1956;DHT22;978;48.314;11.562;2022-08-11T02:05:44;23.00;83.60
1956;DHT22;978;48.314;11.562;2022-08-11T02:08:24;23.00;83.60
1956;DHT22;978;48.314;11.562;2022-08-11T02:11:08;23.00;83.60
1956;DHT22;978;48.314;11.562;2022-08-11T02:14:01;23.00;83.70
1956;DHT22;978;48.314;11.562;2022-08-11T02:16:46;23.00;83.50
1956;DHT22;978;48.314;11.562;2022-08-11T02:19:22;23.00;83.60
1956;DHT22;978;48.314;11.562;2022-08-11T02:22:16;23.00;83.60
1956;DHT22;978;48.314;11.562;2022-08-11T02:25:05;23.00;83.60
1956;DHT22;978;48.314;11.562;2022-08-11T02:27:40;23.00;83.50
1956;DHT22;978;48.314;11.562;2022-08-11T02:30:12;23.00;83.50
1956;DHT22;978;48.314;11.562;2022-08-11T02:32:47;23.00;83.50
1956;DHT22;978;48.314;11.562;2022-08-11T02:35:42;23.00;83.40
1956;DHT22;978;48.314;11.562;2022-08-11T02:38:17;23.00;83.40
1956;DHT22;978;48.314;11.562;2022-08-11T02:40:49;23.00;83.40
1956;DHT22;978;48.314;11.562;2022-08-11T02:43:34;23.00;83.40
1956;DHT22;978;48.314;11.562;2022-08-11T02:46:15;23.00;83.40
1956;DHT22;978;48.314;11.562;2022-08-11T02:48:52;23.00;83.40
1956;DHT22;978;48.314;11.562;2022-08-11T02:51:48;23.00;83.40
1956;DHT22;978;48.314;11.562;2022-08-11T02:54:26;23.00;83.30
1956;DHT22;978;48.314;11.562;2022-08-11T02:57:03;23.00;83.40
1956;DHT22;978;48.314;11.562;2022-08-11T02:59:46;23.00;83.30
1956;DHT22;978;48.314;11.562;2022-08-11T03:02:31;23.00;83.30
1956;DHT22;978;48.314;11.562;2022-08-11T03:05:11;23.00;83.30
1956;DHT22;978;48.314;11.562;2022-08-11T03:07:50;23.00;83.30
1956;DHT22;978;48.314;11.562;2022-08-11T03:10:33;23.00;83.30
1956;DHT22;978;48.314;11.562;2022-08-11T03:13:10;23.00;83.30
1956;DHT22;978;48.314;11.562;2022-08-11T03:16:11;23.00;83.30
1956;DHT22;978;48.314;11.562;2022-08-11T03:19:07;23.00;83.30
1956;DHT22;978;48.314;11.562;2022-08-11T03:21:41;23.00;83.20
1956;DHT22;978;48.314;11.562;2022-08-11T03:24:16;23.00;83.30
1956;DHT22;978;48.314;11.562;2022-08-11T03:26:50;23.00;83.20
1956;DHT22;978;48.314;11.562;2022-08-11T03:29:30;23.00;83.20
1956;DHT22;978;48.314;11.562;2022-08-11T03:32:06;23.00;83.20
1956;DHT22;978;48.314;11.562;2022-08-11T03:34:38;23.00;83.20
1956;DHT22;978;48.314;11.562;2022-08-11T03:37:24;23.00;83.10
1956;DHT22;978;48.314;11.562;2022-08-11T03:40:17;23.00;83.10
1956;DHT22;978;48.314;11.562;2022-08-11T03:43:10;23.00;83.10
1956;DHT22;978;48.314;11.562;2022-08-11T03:45:54;23.00;83.70
1956;DHT22;978;48.314;11.562;2022-08-11T03:48:28;23.00;83.00
1956;DHT22;978;48.314;11.562;2022-08-11T03:51:08;23.00;83.00
1956;DHT22;978;48.314;11.562;2022-08-11T03:54:09;23.00;83.00
1956;DHT22;978;48.314;11.562;2022-08-11T03:57:21;23.00;83.00
1956;DHT22;978;48.314;11.562;2022-08-11T04:00:20;23.00;83.00
1956;DHT22;978;48.314;11.562;2022-08-11T04:06:25;23.00;83.00
1956;DHT22;978;48.314;11.562;2022-08-11T04:12:33;23.00;82.90
1956;DHT22;978;48.314;11.562;2022-08-11T04:15:14;23.00;82.90
1956;DHT22;978;48.314;11.562;2022-08-11T04:18:24;23.00;82.90
1956;DHT22;978;48.314;11.562;2022-08-11T04:21:09;23.00;82.90
1956;DHT22;978;48.314;11.562;2022-08-11T04:27:17;23.00;82.90
1956;DHT22;978;48.314;11.562;2022-08-11T04:29:56;23.00;82.80
1956;DHT22;978;48.314;11.562;2022-08-11T04:32:50;23.00;82.80
1956;DHT22;978;48.314;11.562;2022-08-11T04:35:29;23.00;82.80
1956;DHT22;978;48.314;11.562;2022-08-11T04:47:41;23.00;82.90
1956;DHT22;978;48.314;11.562;2022-08-11T04:50:38;23.00;82.90
1956;DHT22;978;48.314;11.562;2022-08-11T04:53:41;23.00;83.00
1956;DHT22;978;48.314;11.562;2022-08-11T04:56:33;23.00;83.00
1956;DHT22;978;48.314;11.562;2022-08-11T04:59:36;23.00;82.90
1956;DHT22;978;48.314;11.562;2022-08-11T05:05:58;23.00;80.80
1956;DHT22;978;48.314;11.562;2022-08-11T05:08:58;23.00;80.40
1956;DHT22;978;48.314;11.562;2022-08-11T05:14:50;22.90;79.70
1956;DHT22;978;48.314;11.562;2022-08-11T05:17:55;23.00;79.80
1956;DHT22;978;48.314;11.562;2022-08-11T05:20:45;22.90;79.60
1956;DHT22;978;48.314;11.562;2022-08-11T05:23:40;23.00;79.60
1956;DHT22;978;48.314;11.562;2022-08-11T05:26:25;23.00;79.40
1956;DHT22;978;48.314;11.562;2022-08-11T05:29:35;22.90;79.00
1956;DHT22;978;48.314;11.562;2022-08-11T05:32:23;23.00;78.80
1956;DHT22;978;48.314;11.562;2022-08-11T05:35:09;23.00;78.70
1956;DHT22;978;48.314;11.562;2022-08-11T05:37:42;22.90;78.30
1956;DHT22;978;48.314;11.562;2022-08-11T05:40:27;22.90;78.30
1956;DHT22;978;48.314;11.562;2022-08-11T05:43:13;23.00;78.20
1956;DHT22;978;48.314;11.562;2022-08-11T05:45:59;23.00;78.10
1956;DHT22;978;48.314;11.562;2022-08-11T05:48:46;22.90;77.90
1956;DHT22;978;48.314;11.562;2022-08-11T05:51:38;23.00;78.00
1956;DHT22;978;48.314;11.562;2022-08-11T05:54:25;22.90;77.80
1956;DHT22;978;48.314;11.562;2022-08-11T05:57:17;22.90;77.80
1956;DHT22;978;48.314;11.562;2022-08-11T05:59:46;23.00;78.10
1956;DHT22;978;48.314;11.562;2022-08-11T06:02:13;23.00;78.90
1956;DHT22;978;48.314;11.562;2022-08-11T06:04:43;23.00;79.20
1956;DHT22;978;48.314;11.562;2022-08-11T06:07:12;23.00;79.70
1956;DHT22;978;48.314;11.562;2022-08-11T06:09:47;23.00;79.90
1956;DHT22;978;48.314;11.562;2022-08-11T06:12:17;23.00;80.20
1956;DHT22;978;48.314;11.562;2022-08-11T06:14:46;23.00;80.50
1956;DHT22;978;48.314;11.562;2022-08-11T06:17:21;23.00;80.80
1956;DHT22;978;48.314;11.562;2022-08-11T06:19:50;23.00;80.90
1956;DHT22;978;48.314;11.562;2022-08-11T06:22:21;23.00;81.20
1956;DHT22;978;48.314;11.562;2022-08-11T06:24:52;23.00;81.30
1956;DHT22;978;48.314;11.562;2022-08-11T06:27:20;23.00;81.30
1956;DHT22;978;48.314;11.562;2022-08-11T06:29:50;23.00;80.50
1956;DHT22;978;48.314;11.562;2022-08-11T06:32:17;23.00;79.90
1956;DHT22;978;48.314;11.562;2022-08-11T06:35:00;23.00;79.80
1956;DHT22;978;48.314;11.562;2022-08-11T06:37:39;23.00;80.00
1956;DHT22;978;48.314;11.562;2022-08-11T06:40:15;23.00;80.30
1956;DHT22;978;48.314;11.562;2022-08-11T06:42:50;23.00;80.80
1956;DHT22;978;48.314;11.562;2022-08-11T06:45:31;23.00;81.10
1956;DHT22;978;48.314;11.562;2022-08-11T06:48:00;23.00;81.30
1956;DHT22;978;48.314;11.562;2022-08-11T06:50:33;23.00;81.40
1956;DHT22;978;48.314;11.562;2022-08-11T06:53:19;23.00;81.50
1956;DHT22;978;48.314;11.562;2022-08-11T06:55:48;23.00;81.60
1956;DHT22;978;48.314;11.562;2022-08-11T06:58:36;23.00;81.60
1956;DHT22;978;48.314;11.562;2022-08-11T07:01:32;23.00;81.60
1956;DHT22;978;48.314;11.562;2022-08-11T07:04:05;23.00;81.80
1956;DHT22;978;48.314;11.562;2022-08-11T07:06:47;23.00;81.90
1956;DHT22;978;48.314;11.562;2022-08-11T07:10:14;23.00;82.00
1956;DHT22;978;48.314;11.562;2022-08-11T07:13:03;23.00;82.10
1956;DHT22;978;48.314;11.562;2022-08-11T07:15:47;23.00;82.10
1956;DHT22;978;48.314;11.562;2022-08-11T07:18:21;23.00;82.20
1956;DHT22;978;48.314;11.562;2022-08-11T07:21:14;23.10;82.10
1956;DHT22;978;48.314;11.562;2022-08-11T07:24:02;23.10;82.20
1956;DHT22;978;48.314;11.562;2022-08-11T07:26:53;23.00;82.20
1956;DHT22;978;48.314;11.562;2022-08-11T07:29:44;23.10;82.40
1956;DHT22;978;48.314;11.562;2022-08-11T07:32:21;23.00;82.30
1956;DHT22;978;48.314;11.562;2022-08-11T07:34:52;23.00;82.40
1956;DHT22;978;48.314;11.562;2022-08-11T07:37:22;23.00;82.50
1956;DHT22;978;48.314;11.562;2022-08-11T07:39:52;23.00;82.50
1956;DHT22;978;48.314;11.562;2022-08-11T07:42:21;23.00;82.50
1956;DHT22;978;48.314;11.562;2022-08-11T07:44:49;23.00;82.50
1956;DHT22;978;48.314;11.562;2022-08-11T07:47:36;23.00;82.50
1956;DHT22;978;48.314;11.562;2022-08-11T07:50:21;23.00;82.60
1956;DHT22;978;48.314;11.562;2022-08-11T07:53:06;23.10;82.60
1956;DHT22;978;48.314;11.562;2022-08-11T07:55:35;23.10;82.70
1956;DHT22;978;48.314;11.562;2022-08-11T07:58:03;23.00;82.70
1956;DHT22;978;48.314;11.562;2022-08-11T08:00:52;23.00;82.70
1956;DHT22;978;48.314;11.562;2022-08-11T08:03:38;23.00;82.80
1956;DHT22;978;48.314;11.562;2022-08-11T08:06:23;23.10;82.90
1956;DHT22;978;48.314;11.562;2022-08-11T08:09:08;23.10;82.90
1956;DHT22;978;48.314;11.562;2022-08-11T08:11:55;23.10;83.00
1956;DHT22;978;48.314;11.562;2022-08-11T08:14:40;23.10;83.00
1956;DHT22;978;48.314;11.562;2022-08-11T08:17:24;23.10;83.10
1956;DHT22;978;48.314;11.562;2022-08-11T08:20:13;23.10;83.10
1956;DHT22;978;48.314;11.562;2022-08-11T08:22:41;23.00;83.10
1956;DHT22;978;48.314;11.562;2022-08-11T08:25:10;23.10;83.20
1956;DHT22;978;48.314;11.562;2022-08-11T08:27:42;23.10;83.20
1956;DHT22;978;48.314;11.562;2022-08-11T08:30:12;23.10;83.20
1956;DHT22;978;48.314;11.562;2022-08-11T08:32:57;23.10;83.30
1956;DHT22;978;48.314;11.562;2022-08-11T08:35:25;23.10;83.20
1956;DHT22;978;48.314;11.562;2022-08-11T08:37:52;23.10;83.40
1956;DHT22;978;48.314;11.562;2022-08-11T08:40:20;23.10;83.30
1956;DHT22;978;48.314;11.562;2022-08-11T08:42:52;23.10;83.30
1956;DHT22;978;48.314;11.562;2022-08-11T08:45:24;23.10;83.30
1956;DHT22;978;48.314;11.562;2022-08-11T08:47:58;23.10;83.30
1956;DHT22;978;48.314;11.562;2022-08-11T08:50:30;23.10;83.30
1956;DHT22;978;48.314;11.562;2022-08-11T08:53:11;23.10;83.30
1956;DHT22;978;48.314;11.562;2022-08-11T08:55:41;23.10;83.30
1956;DHT22;978;48.314;11.562;2022-08-11T08:58:13;23.10;83.40
1956;DHT22;978;48.314;11.562;2022-08-11T09:00:45;23.10;83.40
1956;DHT22;978;48.314;11.562;2022-08-11T09:03:17;23.10;83.40
1956;DHT22;978;48.314;11.562;2022-08-11T09:05:46;23.10;83.50
1956;DHT22;978;48.314;11.562;2022-08-11T09:08:13;23.10;83.40
1956;DHT22;978;48.314;11.562;2022-08-11T09:10:46;23.10;83.50
1956;DHT22;978;48.314;11.562;2022-08-11T09:13:36;23.10;83.50
1956;DHT22;978;48.314;11.562;2022-08-11T09:16:09;23.10;83.40
1956;DHT22;978;48.314;11.562;2022-08-11T09:18:37;23.10;83.40
1956;DHT22;978;48.314;11.562;2022-08-11T09:21:06;23.10;83.40
1956;DHT22;978;48.314;11.562;2022-08-11T09:23:33;23.10;83.40
1956;DHT22;978;48.314;11.562;2022-08-11T09:26:17;23.10;83.40
1956;DHT22;978;48.314;11.562;2022-08-11T09:29:03;23.00;83.30
1956;DHT22;978;48.314;11.562;2022-08-11T09:31:31;23.10;83.30
1956;DHT22;978;48.314;11.562;2022-08-11T09:34:00;23.10;83.30
1956;DHT22;978;48.314;11.562;2022-08-11T09:36:27;23.00;83.20
1956;DHT22;978;48.314;11.562;2022-08-11T09:39:13;23.10;83.20
1956;DHT22;978;48.314;11.562;2022-08-11T09:42:06;23.10;83.20
1956;DHT22;978;48.314;11.562;2022-08-11T09:44:36;23.00;83.10
1956;DHT22;978;48.314;11.562;2022-08-11T09:47:21;23.10;83.10
1956;DHT22;978;48.314;11.562;2022-08-11T09:49:55;23.10;83.00
1956;DHT22;978;48.314;11.562;2022-08-11T09:52:26;23.00;83.00
1956;DHT22;978;48.314;11.562;2022-08-11T09:54:55;23.10;83.10
1956;DHT22;978;48.314;11.562;2022-08-11T09:57:24;23.10;83.10
1956;DHT22;978;48.314;11.562;2022-08-11T10:00:27;23.10;83.00
1956;DHT22;978;48.314;11.562;2022-08-11T10:02:56;23.10;83.10
1956;DHT22;978;48.314;11.562;2022-08-11T10:05:25;23.10;83.10
1956;DHT22;978;48.314;11.562;2022-08-11T10:08:11;23.00;83.10
1956;DHT22;978;48.314;11.562;2022-08-11T10:10:40;23.10;83.20
1956;DHT22;978;48.314;11.562;2022-08-11T10:13:12;23.10;83.20
1956;DHT22;978;48.314;11.562;2022-08-11T10:15:43;23.10;83.30
1956;DHT22;978;48.314;11.562;2022-08-11T10:18:14;23.10;83.30
1956;DHT22;978;48.314;11.562;2022-08-11T10:21:01;23.10;83.30
1956;DHT22;978;48.314;11.562;2022-08-11T10:23:32;23.00;83.30
1956;DHT22;978;48.314;11.562;2022-08-11T10:26:20;23.10;83.40
1956;DHT22;978;48.314;11.562;2022-08-11T10:29:09;23.10;83.40
1956;DHT22;978;48.314;11.562;2022-08-11T10:31:54;23.10;83.50
1956;DHT22;978;48.314;11.562;2022-08-11T10:34:39;23.00;83.50
1956;DHT22;978;48.314;11.562;2022-08-11T10:37:07;23.10;83.60
1956;DHT22;978;48.314;11.562;2022-08-11T10:39:37;23.10;83.60
1956;DHT22;978;48.314;11.562;2022-08-11T10:42:05;23.10;83.60
1956;DHT22;978;48.314;11.562;2022-08-11T10:44:52;23.10;83.60
1956;DHT22;978;48.314;11.562;2022-08-11T10:47:23;23.10;83.70
1956;DHT22;978;48.314;11.562;2022-08-11T10:50:07;23.00;83.60
1956;DHT22;978;48.314;11.562;2022-08-11T10:52:53;23.10;84.20
1956;DHT22;978;48.314;11.562;2022-08-11T10:55:42;23.10;83.60
1956;DHT22;978;48.314;11.562;2022-08-11T10:58:28;23.10;83.70
1956;DHT22;978;48.314;11.562;2022-08-11T11:01:15;23.10;83.70
1956;DHT22;978;48.314;11.562;2022-08-11T11:03:43;23.10;83.80
1956;DHT22;978;48.314;11.562;2022-08-11T11:06:22;23.10;83.80
1956;DHT22;978;48.314;11.562;2022-08-11T11:08:59;23.10;83.80
1956;DHT22;978;48.314;11.562;2022-08-11T11:11:37;23.10;83.80
1956;DHT22;978;48.314;11.562;2022-08-11T11:14:26;23.10;83.80
1956;DHT22;978;48.314;11.562;2022-08-11T11:17:11;23.10;83.90
1956;DHT22;978;48.314;11.562;2022-08-11T11:19:59;23.10;83.80
1956;DHT22;978;48.314;11.562;2022-08-11T11:22:27;23.10;83.80
1956;DHT22;978;48.314;11.562;2022-08-11T11:25:14;23.20;83.90
1956;DHT22;978;48.314;11.562;2022-08-11T11:27:58;23.10;83.70
1956;DHT22;978;48.314;11.562;2022-08-11T11:30:35;23.10;83.80
1956;DHT22;978;48.314;11.562;2022-08-11T11:33:07;23.10;83.80
1956;DHT22;978;48.314;11.562;2022-08-11T11:35:43;23.10;83.80
1956;DHT22;978;48.314;11.562;2022-08-11T11:38:12;23.10;83.80
1956;DHT22;978;48.314;11.562;2022-08-11T11:40:41;23.10;83.90
1956;DHT22;978;48.314;11.562;2022-08-11T11:43:08;23.10;83.90
1956;DHT22;978;48.314;11.562;2022-08-11T11:45:35;23.10;84.00
1956;DHT22;978;48.314;11.562;2022-08-11T11:48:02;23.10;84.00
1956;DHT22;978;48.314;11.562;2022-08-11T11:50:32;23.10;84.10
1956;DHT22;978;48.314;11.562;2022-08-11T11:53:05;23.10;84.10
1956;DHT22;978;48.314;11.562;2022-08-11T11:55:33;23.10;84.10
1956;DHT22;978;48.314;11.562;2022-08-11T11:58:01;23.10;84.20
1956;DHT22;978;48.314;11.562;2022-08-11T12:00:47;23.20;84.30
1956;DHT22;978;48.314;11.562;2022-08-11T12:03:32;23.10;84.30
1956;DHT22;978;48.314;11.562;2022-08-11T12:06:02;23.20;84.40
1956;DHT22;978;48.314;11.562;2022-08-11T12:08:31;23.20;84.40
1956;DHT22;978;48.314;11.562;2022-08-11T12:11:01;23.20;84.50
1956;DHT22;978;48.314;11.562;2022-08-11T12:13:48;23.10;84.50
1956;DHT22;978;48.314;11.562;2022-08-11T12:16:17;23.20;84.60
1956;DHT22;978;48.314;11.562;2022-08-11T12:18:46;23.20;84.60
1956;DHT22;978;48.314;11.562;2022-08-11T12:21:14;23.10;84.60
1956;DHT22;978;48.314;11.562;2022-08-11T12:23:45;23.10;84.60
1956;DHT22;978;48.314;11.562;2022-08-11T12:26:32;23.20;84.70
1956;DHT22;978;48.314;11.562;2022-08-11T12:29:18;23.10;84.70
1956;DHT22;978;48.314;11.562;2022-08-11T12:31:45;23.10;84.70
1956;DHT22;978;48.314;11.562;2022-08-11T12:34:15;23.10;84.70
1956;DHT22;978;48.314;11.562;2022-08-11T12:36:45;23.20;84.80
1956;DHT22;978;48.314;11.562;2022-08-11T12:39:19;23.20;84.80
1956;DHT22;978;48.314;11.562;2022-08-11T12:42:07;23.20;84.90
1956;DHT22;978;48.314;11.562;2022-08-11T12:44:53;23.20;85.00
1956;DHT22;978;48.314;11.562;2022-08-11T12:47:40;23.20;84.80
1956;DHT22;978;48.314;11.562;2022-08-11T12:50:22;23.20;85.00
1956;DHT22;978;48.314;11.562;2022-08-11T12:53:08;23.20;85.00
1956;DHT22;978;48.314;11.562;2022-08-11T12:55:39;23.10;85.00
1956;DHT22;978;48.314;11.562;2022-08-11T12:58:26;23.20;85.10
1956;DHT22;978;48.314;11.562;2022-08-11T13:00:57;23.20;85.20
1956;DHT22;978;48.314;11.562;2022-08-11T13:03:41;23.10;85.10
1956;DHT22;978;48.314;11.562;2022-08-11T13:06:27;23.20;85.20
1956;DHT22;978;48.314;11.562;2022-08-11T13:08:55;23.20;85.30
1956;DHT22;978;48.314;11.562;2022-08-11T13:11:29;23.20;85.30
1956;DHT22;978;48.314;11.562;2022-08-11T13:14:15;23.20;85.30
1956;DHT22;978;48.314;11.562;2022-08-11T13:16:43;23.20;85.30
1956;DHT22;978;48.314;11.562;2022-08-11T13:19:24;23.20;85.40
1956;DHT22;978;48.314;11.562;2022-08-11T13:21:52;23.20;85.40
1956;DHT22;978;48.314;11.562;2022-08-11T13:24:20;23.20;85.50
1956;DHT22;978;48.314;11.562;2022-08-11T13:26:50;23.20;85.50
1956;DHT22;978;48.314;11.562;2022-08-11T13:29:18;23.20;85.40
1956;DHT22;978;48.314;11.562;2022-08-11T13:31:46;23.20;85.60
1956;DHT22;978;48.314;11.562;2022-08-11T13:34:14;23.20;85.50
1956;DHT22;978;48.314;11.562;2022-08-11T13:36:41;23.20;85.50
1956;DHT22;978;48.314;11.562;2022-08-11T13:39:09;23.20;85.60
1956;DHT22;978;48.314;11.562;2022-08-11T13:41:39;23.20;85.70
1956;DHT22;978;48.314;11.562;2022-08-11T13:44:12;23.20;85.90
1956;DHT22;978;48.314;11.562;2022-08-11T13:46:39;23.20;85.70
1956;DHT22;978;48.314;11.562;2022-08-11T13:49:08;23.20;85.70
1956;DHT22;978;48.314;11.562;2022-08-11T13:51:37;23.20;85.80
1956;DHT22;978;48.314;11.562;2022-08-11T13:54:07;23.20;85.80
1956;DHT22;978;48.314;11.562;2022-08-11T13:56:38;23.20;85.80
1956;DHT22;978;48.314;11.562;2022-08-11T13:59:09;23.20;85.80
1956;DHT22;978;48.314;11.562;2022-08-11T14:01:37;23.20;85.70
1956;DHT22;978;48.314;11.562;2022-08-11T14:04:09;23.20;85.60
1956;DHT22;978;48.314;11.562;2022-08-11T14:06:44;23.20;85.50
1956;DHT22;978;48.314;11.562;2022-08-11T14:09:12;23.20;85.40
1956;DHT22;978;48.314;11.562;2022-08-11T14:11:40;23.20;85.50
1956;DHT22;978;48.314;11.562;2022-08-11T14:14:32;23.20;85.40
1956;DHT22;978;48.314;11.562;2022-08-11T14:17:05;23.20;85.40
1956;DHT22;978;48.314;11.562;2022-08-11T14:19:39;23.20;85.30
1956;DHT22;978;48.314;11.562;2022-08-11T14:22:07;23.20;85.30
1956;DHT22;978;48.314;11.562;2022-08-11T14:24:36;23.20;85.30
1956;DHT22;978;48.314;11.562;2022-08-11T14:27:07;23.20;85.30
1956;DHT22;978;48.314;11.562;2022-08-11T14:29:40;23.20;85.30
1956;DHT22;978;48.314;11.562;2022-08-11T14:32:11;23.20;85.30
1956;DHT22;978;48.314;11.562;2022-08-11T14:34:42;23.20;85.30
1956;DHT22;978;48.314;11.562;2022-08-11T14:37:11;23.20;85.30
1956;DHT22;978;48.314;11.562;2022-08-11T14:39:43;23.20;85.20
1956;DHT22;978;48.314;11.562;2022-08-11T14:42:13;23.20;85.20
1956;DHT22;978;48.314;11.562;2022-08-11T14:45:02;23.20;85.30
1956;DHT22;978;48.314;11.562;2022-08-11T14:48:08;23.20;85.30
1956;DHT22;978;48.314;11.562;2022-08-11T14:50:38;23.20;85.20
1956;DHT22;978;48.314;11.562;2022-08-11T14:53:07;23.20;85.20
1956;DHT22;978;48.314;11.562;2022-08-11T14:55:38;23.10;85.20
1956;DHT22;978;48.314;11.562;2022-08-11T14:58:26;23.20;85.20
1956;DHT22;978;48.314;11.562;2022-08-11T15:00:56;23.20;85.20
1956;DHT22;978;48.314;11.562;2022-08-11T15:03:24;23.20;85.20
1956;DHT22;978;48.314;11.562;2022-08-11T15:05:53;23.20;85.30
1956;DHT22;978;48.314;11.562;2022-08-11T15:08:21;23.20;85.20
1956;DHT22;978;48.314;11.562;2022-08-11T15:11:12;23.20;85.20
1956;DHT22;978;48.314;11.562;2022-08-11T15:13:53;23.20;85.30
1956;DHT22;978;48.314;11.562;2022-08-11T15:16:23;23.10;84.80
1956;DHT22;978;48.314;11.562;2022-08-11T15:19:10;23.10;84.80
1956;DHT22;978;48.314;11.562;2022-08-11T15:21:38;23.20;85.00
1956;DHT22;978;48.314;11.562;2022-08-11T15:24:23;23.10;85.00
1956;DHT22;978;48.314;11.562;2022-08-11T15:26:51;23.10;85.10
1956;DHT22;978;48.314;11.562;2022-08-11T15:29:42;23.10;85.10
1956;DHT22;978;48.314;11.562;2022-08-11T15:32:29;23.10;85.20
1956;DHT22;978;48.314;11.562;2022-08-11T15:35:15;23.10;85.20
1956;DHT22;978;48.314;11.562;2022-08-11T15:38:01;23.10;85.20
1956;DHT22;978;48.314;11.562;2022-08-11T15:40:36;23.10;85.20
1956;DHT22;978;48.314;11.562;2022-08-11T15:43:24;23.10;85.20
1956;DHT22;978;48.314;11.562;2022-08-11T15:46:14;23.10;85.20
1956;DHT22;978;48.314;11.562;2022-08-11T15:48:46;23.10;85.20
1956;DHT22;978;48.314;11.562;2022-08-11T15:51:17;23.10;85.10
1956;DHT22;978;48.314;11.562;2022-08-11T15:53:51;23.10;85.10
1956;DHT22;978;48.314;11.562;2022-08-11T15:56:20;23.10;85.10
1956;DHT22;978;48.314;11.562;2022-08-11T15:58:50;23.10;85.10
1956;DHT22;978;48.314;11.562;2022-08-11T16:01:39;23.10;85.10
1956;DHT22;978;48.314;11.562;2022-08-11T16:04:28;23.10;85.10
1956;DHT22;978;48.314;11.562;2022-08-11T16:06:58;23.10;85.10
1956;DHT22;978;48.314;11.562;2022-08-11T16:09:30;23.10;85.10
1956;DHT22;978;48.314;11.562;2022-08-11T16:12:01;23.10;85.00
1956;DHT22;978;48.314;11.562;2022-08-11T16:14:32;23.10;85.10
1956;DHT22;978;48.314;11.562;2022-08-11T16:17:18;23.10;85.10
1956;DHT22;978;48.314;11.562;2022-08-11T16:19:50;23.10;85.10
1956;DHT22;978;48.314;11.562;2022-08-11T16:22:21;23.10;85.10
1956;DHT22;978;48.314;11.562;2022-08-11T16:24:55;23.10;85.10
1956;DHT22;978;48.314;11.562;2022-08-11T16:27:23;23.10;85.10
1956;DHT22;978;48.314;11.562;2022-08-11T16:29:51;23.10;85.10
1956;DHT22;978;48.314;11.562;2022-08-11T16:32:20;23.10;85.10
1956;DHT22;978;48.314;11.562;2022-08-11T16:34:54;23.10;85.10
1956;DHT22;978;48.314;11.562;2022-08-11T16:37:40;23.20;85.10
1956;DHT22;978;48.314;11.562;2022-08-11T16:40:27;23.20;85.20
1956;DHT22;978;48.314;11.562;2022-08-11T16:42:55;23.20;85.10
1956;DHT22;978;48.314;11.562;2022-08-11T16:45:42;23.20;85.20
1956;DHT22;978;48.314;11.562;2022-08-11T16:48:31;23.20;85.20
1956;DHT22;978;48.314;11.562;2022-08-11T16:51:00;23.20;85.20
1956;DHT22;978;48.314;11.562;2022-08-11T16:53:28;23.20;85.30
1956;DHT22;978;48.314;11.562;2022-08-11T16:55:57;23.20;85.20
1956;DHT22;978;48.314;11.562;2022-08-11T16:58:29;23.20;85.30
1956;DHT22;978;48.314;11.562;2022-08-11T17:01:15;23.20;85.20
1956;DHT22;978;48.314;11.562;2022-08-11T17:03:51;23.20;85.20
1956;DHT22;978;48.314;11.562;2022-08-11T17:06:40;23.20;85.40
1956;DHT22;978;48.314;11.562;2022-08-11T17:09:29;23.20;85.40
1956;DHT22;978;48.314;11.562;2022-08-11T17:12:18;23.10;85.40
1956;DHT22;978;48.314;11.562;2022-08-11T17:15:07;23.10;85.40
1956;DHT22;978;48.314;11.562;2022-08-11T17:17:57;23.10;85.40
1956;DHT22;978;48.314;11.562;2022-08-11T17:20:26;23.10;85.40
1956;DHT22;978;48.314;11.562;2022-08-11T17:22:55;23.10;85.40
1956;DHT22;978;48.314;11.562;2022-08-11T17:25:36;23.10;85.40
1956;DHT22;978;48.314;11.562;2022-08-11T17:28:04;23.20;85.50
1956;DHT22;978;48.314;11.562;2022-08-11T17:30:33;23.10;85.40
1956;DHT22;978;48.314;11.562;2022-08-11T17:33:21;23.10;85.40
1956;DHT22;978;48.314;11.562;2022-08-11T17:36:06;23.10;85.40
1956;DHT22;978;48.314;11.562;2022-08-11T17:38:36;23.10;85.40
1956;DHT22;978;48.314;11.562;2022-08-11T17:41:04;23.10;85.50
1956;DHT22;978;48.314;11.562;2022-08-11T17:43:51;23.10;85.50
1956;DHT22;978;48.314;11.562;2022-08-11T17:46:38;23.10;85.50
1956;DHT22;978;48.314;11.562;2022-08-11T17:49:22;23.10;85.50
1956;DHT22;978;48.314;11.562;2022-08-11T17:51:50;23.10;85.50
1956;DHT22;978;48.314;11.562;2022-08-11T17:54:38;23.10;85.50
1956;DHT22;978;48.314;11.562;2022-08-11T17:57:25;23.10;85.50
1956;DHT22;978;48.314;11.562;2022-08-11T18:00:13;23.10;85.50